createdAt,value
2022-10-19T00:01:22.433Z,60.43
2022-10-19T00:03:52.288Z,59.59
2022-10-19T00:06:27.449Z,60.08
2022-10-19T00:09:04.560Z,59.58
2022-10-19T00:11:33.596Z,59.79
2022-10-19T00:14:01.075Z,59.59
2022-10-19T00:16:28.851Z,59.37
2022-10-19T00:19:00.350Z,59.36
2022-10-19T00:21:27.659Z,58.46
2022-10-19T00:23:54.549Z,59.61
2022-10-19T00:26:21.188Z,58.21
2022-10-19T00:28:48.969Z,59.27
2022-10-19T00:31:17.712Z,59.62
2022-10-19T00:33:46.947Z,59.16
2022-10-19T00:36:32.038Z,59.24
2022-10-19T00:38:59.162Z,59.14
2022-10-19T00:41:28.917Z,58.90
2022-10-19T00:43:57.760Z,59.42
2022-10-19T00:46:26.301Z,59.28
2022-10-19T00:48:57.396Z,58.39
2022-10-19T00:51:26.155Z,58.35
2022-10-19T00:53:52.985Z,58.12
2022-10-19T00:56:19.685Z,58.29
2022-10-19T00:58:46.745Z,57.68
2022-10-19T01:01:17.853Z,57.81
2022-10-19T01:03:45.291Z,58.27
2022-10-19T01:06:14.510Z,57.59
2022-10-19T01:08:41.170Z,57.14
2022-10-19T01:11:26.610Z,57.71
2022-10-19T01:14:04.995Z,57.58
2022-10-19T01:16:40.692Z,57.90
2022-10-19T01:19:27.538Z,57.91
2022-10-19T01:22:00.078Z,57.75
2022-10-19T01:25:25.135Z,57.21
2022-10-19T01:28:19.678Z,57.71
2022-10-19T01:31:17.805Z,57.05
2022-10-19T01:34:15.233Z,56.82
2022-10-19T01:37:00.200Z,57.15
2022-10-19T01:39:42.597Z,58.30
2022-10-19T01:42:28.088Z,57.48
2022-10-19T01:45:13.996Z,57.30
2022-10-19T01:47:51.080Z,57.70
2022-10-19T01:50:25.583Z,58.52
2022-10-19T01:52:54.399Z,58.61
2022-10-19T01:55:24.121Z,58.70
2022-10-19T01:57:59.310Z,59.23
2022-10-19T02:00:27.224Z,58.05
2022-10-19T02:02:55.254Z,59.06
2022-10-19T02:05:27.919Z,59.07
2022-10-19T02:08:24.968Z,57.99
2022-10-19T02:10:53.468Z,58.19
2022-10-19T02:13:21.450Z,58.97
2022-10-19T02:15:51.544Z,58.72
2022-10-19T02:18:24.255Z,58.58
2022-10-19T02:20:51.226Z,58.93
2022-10-19T02:23:22.114Z,59.90
2022-10-19T02:25:48.974Z,59.20
2022-10-19T02:28:15.758Z,59.34
2022-10-19T02:30:42.694Z,58.40
2022-10-19T02:33:09.606Z,59.72
2022-10-19T02:35:36.315Z,59.45
2022-10-19T02:38:05.360Z,60.72
2022-10-19T02:40:36.206Z,60.33
2022-10-19T02:43:07.596Z,59.98
2022-10-19T02:45:40.833Z,60.58
2022-10-19T02:48:13.387Z,60.30
2022-10-19T02:50:49.803Z,59.95
2022-10-19T02:53:16.651Z,62.19
2022-10-19T02:55:43.689Z,61.59
2022-10-19T02:58:10.383Z,61.22
2022-10-19T03:00:37.005Z,60.45
2022-10-19T03:03:03.751Z,59.75
2022-10-19T03:05:30.386Z,59.87
2022-10-19T03:07:56.982Z,60.36
2022-10-19T03:10:23.767Z,60.27
2022-10-19T03:12:50.416Z,59.72
2022-10-19T03:15:18.868Z,60.23
2022-10-19T03:17:45.470Z,60.15
2022-10-19T03:20:12.361Z,60.47
2022-10-19T03:22:39.113Z,60.21
2022-10-19T03:25:06.212Z,59.98
2022-10-19T03:27:33.162Z,59.93
2022-10-19T03:29:59.930Z,59.37
2022-10-19T03:32:26.819Z,59.85
2022-10-19T03:34:53.440Z,59.93
2022-10-19T03:37:20.120Z,60.68
2022-10-19T03:39:46.696Z,61.17
2022-10-19T03:42:13.340Z,61.55
2022-10-19T03:44:39.905Z,61.69
2022-10-19T03:47:06.508Z,61.88
2022-10-19T03:49:34.669Z,62.17
2022-10-19T03:52:03.585Z,60.78
2022-10-19T03:54:30.171Z,61.13
2022-10-19T03:56:56.822Z,61.19
2022-10-19T03:59:24.365Z,60.07
2022-10-19T04:01:50.867Z,59.90
2022-10-19T04:04:19.777Z,61.35
2022-10-19T04:06:49.048Z,61.49
2022-10-19T04:09:18.760Z,61.47
2022-10-19T04:11:45.862Z,61.75
2022-10-19T04:14:19.275Z,61.04
2022-10-19T04:16:53.876Z,61.25
2022-10-19T04:19:20.467Z,60.90
2022-10-19T04:21:49.196Z,60.97
2022-10-19T04:24:18.867Z,61.06
2022-10-19T04:26:50.416Z,61.02
2022-10-19T04:29:19.203Z,60.52
2022-10-19T04:31:48.251Z,60.07
2022-10-19T04:34:14.884Z,59.26
2022-10-19T04:36:41.509Z,60.03
2022-10-19T04:39:08.345Z,59.38
2022-10-19T04:41:35.637Z,59.59
2022-10-19T04:44:04.308Z,59.46
2022-10-19T04:46:30.895Z,58.36
2022-10-19T04:48:58.292Z,58.23
2022-10-19T04:51:26.695Z,57.94
2022-10-19T04:53:56.893Z,59.29
2022-10-19T04:56:27.031Z,58.60
2022-10-19T04:58:59.946Z,58.08
2022-10-19T05:01:29.124Z,58.98
2022-10-19T05:04:00.725Z,58.74
2022-10-19T05:06:28.641Z,59.26
2022-10-19T05:08:56.041Z,59.14
2022-10-19T05:11:22.632Z,58.11
2022-10-19T05:13:49.800Z,58.92
2022-10-19T05:16:19.259Z,58.73
2022-10-19T05:18:50.590Z,58.50
2022-10-19T05:21:18.771Z,58.85
2022-10-19T05:23:45.396Z,59.33
2022-10-19T05:26:17.759Z,59.12
2022-10-19T05:28:49.586Z,58.46
2022-10-19T05:31:19.112Z,59.08
2022-10-19T05:33:46.279Z,58.39
2022-10-19T05:36:27.631Z,58.51
2022-10-19T05:38:56.719Z,58.77
2022-10-19T05:41:24.944Z,58.43
2022-10-19T05:43:57.324Z,57.35
2022-10-19T05:46:25.212Z,57.63
2022-10-19T05:48:51.807Z,57.73
2022-10-19T05:51:23.618Z,56.78
2022-10-19T05:53:50.717Z,57.20
2022-10-19T05:56:20.376Z,57.75
2022-10-19T05:58:48.373Z,58.13
2022-10-19T06:01:16.566Z,57.97
2022-10-19T06:03:43.211Z,57.88
2022-10-19T06:06:10.182Z,57.86
2022-10-19T06:08:38.220Z,58.47
2022-10-19T06:11:13.863Z,58.15
2022-10-19T06:13:41.932Z,59.95
2022-10-19T06:16:10.089Z,60.36
2022-10-19T06:18:37.992Z,60.41
2022-10-19T06:21:06.827Z,58.14
2022-10-19T06:23:34.708Z,58.13
2022-10-19T06:26:07.285Z,58.60
2022-10-19T06:28:34.373Z,57.73
2022-10-19T06:31:01.098Z,57.58
2022-10-19T06:33:30.200Z,57.36
2022-10-19T06:35:56.939Z,57.31
2022-10-19T06:38:23.542Z,58.84
2022-10-19T06:40:50.216Z,57.65
2022-10-19T06:43:16.855Z,57.44
2022-10-19T06:45:43.399Z,58.51
2022-10-19T06:48:10.038Z,58.20
2022-10-19T06:50:36.648Z,58.21
2022-10-19T06:53:03.350Z,59.03
2022-10-19T06:55:29.977Z,59.01
2022-10-19T06:57:59.263Z,57.60
2022-10-19T07:00:25.988Z,57.56
2022-10-19T07:02:52.772Z,57.02
2022-10-19T07:05:19.424Z,57.07
2022-10-19T07:07:46.189Z,58.85
2022-10-19T07:10:13.080Z,58.48
2022-10-19T07:12:39.741Z,56.53
2022-10-19T07:15:06.798Z,56.04
2022-10-19T07:17:33.687Z,57.33
2022-10-19T07:20:00.399Z,57.70
2022-10-19T07:22:28.181Z,57.59
2022-10-19T07:24:55.135Z,56.58
2022-10-19T07:27:22.092Z,57.23
2022-10-19T07:29:48.686Z,56.50
2022-10-19T07:32:15.350Z,54.69
2022-10-19T07:34:42.084Z,56.20
2022-10-19T07:37:08.671Z,56.53
2022-10-19T07:39:35.288Z,57.53
2022-10-19T07:42:01.956Z,52.86
2022-10-19T07:44:28.572Z,52.90
2022-10-19T07:46:55.293Z,54.75
2022-10-19T07:49:22.450Z,54.62
2022-10-19T07:51:53.788Z,54.50
2022-10-19T07:54:21.397Z,52.48
2022-10-19T07:56:47.912Z,53.02
2022-10-19T07:59:16.279Z,55.02
2022-10-19T08:01:44.692Z,54.96
2022-10-19T08:04:49.103Z,54.39
2022-10-19T08:06:58.017Z,55.13
2022-10-19T08:12:15.185Z,51.85
2022-10-19T08:14:42.412Z,51.43
2022-10-19T08:17:11.955Z,52.64
2022-10-19T08:19:43.401Z,53.83
2022-10-19T08:22:11.052Z,53.98
2022-10-19T08:24:38.120Z,53.64
2022-10-19T08:27:04.867Z,53.49
2022-10-19T08:29:31.957Z,54.69
2022-10-19T08:31:59.221Z,53.28
2022-10-19T08:34:26.684Z,53.81
2022-10-19T08:36:53.223Z,51.88
2022-10-19T08:39:19.871Z,52.39
2022-10-19T08:41:53.211Z,52.91
2022-10-19T08:44:40.201Z,53.64
2022-10-19T08:47:38.156Z,52.49
2022-10-19T08:50:19.397Z,52.51
2022-10-19T08:52:51.688Z,51.72
2022-10-19T08:55:26.753Z,51.82
2022-10-19T08:58:02.979Z,51.76
2022-10-19T09:00:41.252Z,50.69
2022-10-19T09:03:13.803Z,49.34
2022-10-19T09:06:10.143Z,51.47
2022-10-19T09:08:39.026Z,54.00
2022-10-19T09:11:08.775Z,51.68
2022-10-19T09:14:03.693Z,49.69
2022-10-19T09:16:28.630Z,52.40
2022-10-19T09:21:46.316Z,52.91
2022-10-19T09:24:35.455Z,52.04
2022-10-19T09:27:02.674Z,54.51
2022-10-19T09:29:41.513Z,51.08
2022-10-19T09:32:24.087Z,50.14
2022-10-19T09:35:03.077Z,49.66
2022-10-19T09:37:32.757Z,49.83
2022-10-19T09:39:59.526Z,48.45
2022-10-19T09:42:34.031Z,49.69
2022-10-19T09:45:11.935Z,50.13
2022-10-19T09:47:40.749Z,51.14
2022-10-19T09:50:19.226Z,48.91
2022-10-19T09:52:50.287Z,48.52
2022-10-19T09:55:20.626Z,48.91
2022-10-19T09:57:49.746Z,47.45
2022-10-19T10:00:25.258Z,47.82
2022-10-19T10:02:55.869Z,47.68
2022-10-19T10:05:40.747Z,47.23
2022-10-19T10:08:15.532Z,46.54
2022-10-19T10:10:52.712Z,46.77
2022-10-19T10:13:23.561Z,46.46
2022-10-19T10:15:56.637Z,46.29
2022-10-19T10:18:24.990Z,46.51
2022-10-19T10:21:13.523Z,46.27
2022-10-19T10:23:41.083Z,46.55
2022-10-19T10:26:17.885Z,48.19
2022-10-19T10:28:50.212Z,46.96
2022-10-19T10:31:22.471Z,47.48
2022-10-19T10:34:10.794Z,46.29
2022-10-19T10:36:51.556Z,46.47
2022-10-19T10:39:18.360Z,45.16
2022-10-19T10:41:47.958Z,45.77
2022-10-19T10:44:20.746Z,48.00
2022-10-19T10:46:57.051Z,47.14
2022-10-19T10:49:27.383Z,47.30
2022-10-19T10:51:59.749Z,47.40
2022-10-19T10:54:27.826Z,46.14
2022-10-19T10:57:06.620Z,46.01
2022-10-19T10:59:43.060Z,46.54
2022-10-19T11:02:35.529Z,46.37
2022-10-19T11:05:29.469Z,45.18
2022-10-19T11:08:03.301Z,46.07
2022-10-19T11:11:14.155Z,47.96
2022-10-19T11:13:56.983Z,46.03
2022-10-19T11:16:38.951Z,45.76
2022-10-19T11:19:12.666Z,46.68
2022-10-19T11:21:59.573Z,45.08
2022-10-19T11:24:48.721Z,45.81
2022-10-19T11:28:00.128Z,47.83
2022-10-19T11:30:27.849Z,46.68
2022-10-19T11:33:06.051Z,45.63
2022-10-19T11:35:43.441Z,45.63
2022-10-19T11:38:29.800Z,44.59
2022-10-19T11:41:38.294Z,44.12
2022-10-19T11:44:43.563Z,41.63
2022-10-19T11:47:32.292Z,40.84
2022-10-19T11:50:20.451Z,39.49
2022-10-19T11:52:55.994Z,38.54
2022-10-19T11:55:43.052Z,37.55
2022-10-19T11:58:44.239Z,36.23
2022-10-19T12:01:19.697Z,36.64
2022-10-19T12:04:04.475Z,35.98
2022-10-19T12:07:01.712Z,40.22
2022-10-19T12:09:56.844Z,39.23
2022-10-19T12:12:35.103Z,39.10
2022-10-19T12:15:10.958Z,39.26
2022-10-19T12:17:41.152Z,40.07
2022-10-19T12:20:25.853Z,40.09
2022-10-19T12:22:52.959Z,40.64
2022-10-19T12:25:20.851Z,38.66
2022-10-19T12:27:50.028Z,38.96
2022-10-19T12:30:20.622Z,41.06
2022-10-19T12:33:12.213Z,41.22
2022-10-19T12:35:55.524Z,41.76
2022-10-19T12:38:35.402Z,41.37
2022-10-19T12:41:06.520Z,42.26
2022-10-19T12:43:41.025Z,41.44
2022-10-19T12:46:26.582Z,41.20
2022-10-19T12:49:41.230Z,42.07
2022-10-19T12:52:08.186Z,40.29
2022-10-19T12:54:38.280Z,40.52
2022-10-19T12:57:22.894Z,39.21
2022-10-19T13:00:00.605Z,36.38
2022-10-19T13:05:00.299Z,39.77
2022-10-19T13:07:27.718Z,38.94
2022-10-19T13:10:01.776Z,38.72
2022-10-19T13:12:29.817Z,38.75
2022-10-19T13:15:04.865Z,40.25
2022-10-19T13:17:34.767Z,39.30
2022-10-19T13:20:13.513Z,40.64
2022-10-19T13:23:09.045Z,41.98
2022-10-19T13:25:40.470Z,42.61
2022-10-19T13:28:07.054Z,41.60
2022-10-19T13:30:39.296Z,41.47
2022-10-19T13:33:33.215Z,41.35
2022-10-19T13:35:59.848Z,41.65
2022-10-19T13:38:33.739Z,41.74
2022-10-19T13:41:25.241Z,42.09
2022-10-19T13:44:02.897Z,41.32
2022-10-19T13:46:29.576Z,42.56
2022-10-19T13:49:04.975Z,43.27
2022-10-19T13:52:08.460Z,40.97
2022-10-19T13:54:53.491Z,42.57
2022-10-19T13:57:45.577Z,44.33
2022-10-19T14:00:20.124Z,44.79
2022-10-19T14:03:07.936Z,44.78
2022-10-19T14:05:57.755Z,44.77
2022-10-19T14:08:27.382Z,44.89
2022-10-19T14:11:04.826Z,43.86
2022-10-19T14:13:32.383Z,45.01
2022-10-19T14:16:03.176Z,45.53
2022-10-19T14:18:32.851Z,43.39
2022-10-19T14:21:04.269Z,44.25
2022-10-19T14:23:34.257Z,45.82
2022-10-19T14:26:03.997Z,45.23
2022-10-19T14:28:32.014Z,45.35
2022-10-19T14:31:05.368Z,45.41
2022-10-19T14:33:35.291Z,45.60
2022-10-19T14:36:02.602Z,45.92
2022-10-19T14:38:38.513Z,46.59
2022-10-19T14:41:06.653Z,45.58
2022-10-19T14:43:34.919Z,45.57
2022-10-19T14:46:11.275Z,45.21
2022-10-19T14:48:45.600Z,45.32
2022-10-19T14:51:43.314Z,46.62
2022-10-19T14:54:36.115Z,45.66
2022-10-19T14:57:12.489Z,44.27
2022-10-19T14:59:46.461Z,45.58
2022-10-19T15:02:22.629Z,45.58
2022-10-19T15:04:51.438Z,46.52
2022-10-19T15:07:25.435Z,45.66
2022-10-19T15:09:58.254Z,46.40
2022-10-19T15:12:40.255Z,46.93
2022-10-19T15:15:15.427Z,47.77
2022-10-19T15:17:54.382Z,47.13
2022-10-19T15:20:30.341Z,47.47
2022-10-19T15:22:58.626Z,47.37
2022-10-19T15:25:32.848Z,48.39
2022-10-19T15:28:20.270Z,48.03
2022-10-19T15:30:59.094Z,47.36
2022-10-19T15:33:26.383Z,48.13
2022-10-19T15:35:53.072Z,47.94
2022-10-19T15:38:25.305Z,48.72
2022-10-19T15:41:00.855Z,48.84
2022-10-19T15:43:30.525Z,49.13
2022-10-19T15:46:12.406Z,50.62
2022-10-19T15:48:41.835Z,51.03
2022-10-19T15:51:23.508Z,49.33
2022-10-19T15:53:58.323Z,50.19
2022-10-19T15:56:27.909Z,50.59
2022-10-19T15:58:56.835Z,51.96
2022-10-19T16:01:26.519Z,52.21
2022-10-19T16:03:54.522Z,51.94
2022-10-19T16:06:23.551Z,51.59
2022-10-19T16:08:51.297Z,52.93
2022-10-19T16:11:20.037Z,51.98
2022-10-19T16:13:46.791Z,51.41
2022-10-19T16:16:21.123Z,52.84
2022-10-19T16:18:47.902Z,51.90
2022-10-19T16:21:15.533Z,52.53
2022-10-19T16:23:42.375Z,53.17
2022-10-19T16:26:09.118Z,52.33
2022-10-19T16:28:36.068Z,54.19
2022-10-19T16:31:02.892Z,56.18
2022-10-19T16:33:29.513Z,56.30
2022-10-19T16:35:56.067Z,56.75
2022-10-19T16:38:23.276Z,55.06
2022-10-19T16:40:49.894Z,55.74
2022-10-19T16:43:16.512Z,55.12
2022-10-19T16:45:43.742Z,55.56
2022-10-19T16:48:13.474Z,54.96
2022-10-19T16:50:40.146Z,54.75
2022-10-19T16:53:10.428Z,55.47
2022-10-19T16:55:38.214Z,55.77
2022-10-19T16:58:04.808Z,56.28
2022-10-19T17:00:31.722Z,56.75
2022-10-19T17:02:58.487Z,55.38
2022-10-19T17:05:25.107Z,55.38
2022-10-19T17:07:51.781Z,56.67
2022-10-19T17:10:18.492Z,55.95
2022-10-19T17:12:45.136Z,56.47
2022-10-19T17:17:59.834Z,57.72
2022-10-19T17:20:26.484Z,58.24
2022-10-19T17:22:53.114Z,57.23
2022-10-19T17:25:19.701Z,56.99
2022-10-19T17:27:50.534Z,57.25
2022-10-19T17:30:17.344Z,57.93
2022-10-19T17:32:43.973Z,58.15
2022-10-19T17:35:10.671Z,57.53
2022-10-19T17:37:38.055Z,57.89
2022-10-19T17:40:04.937Z,56.47
2022-10-19T17:42:32.267Z,57.40
2022-10-19T17:44:58.867Z,57.64
2022-10-19T17:47:25.442Z,57.28
2022-10-19T17:49:52.087Z,58.40
2022-10-19T17:52:18.684Z,57.53
2022-10-19T17:54:54.532Z,57.37
2022-10-19T17:57:32.449Z,57.57
2022-10-19T17:59:59.189Z,57.98
2022-10-19T18:02:25.896Z,57.63
2022-10-19T18:04:52.519Z,57.45
2022-10-19T18:07:21.961Z,57.32
2022-10-19T18:09:48.722Z,57.35
2022-10-19T18:12:15.343Z,57.81
2022-10-19T18:14:42.038Z,59.23
2022-10-19T18:17:08.594Z,58.71
2022-10-19T18:19:35.228Z,58.27
2022-10-19T18:22:01.811Z,58.91
2022-10-19T18:24:28.562Z,58.35
2022-10-19T18:26:55.315Z,58.37
2022-10-19T18:29:24.510Z,58.91
2022-10-19T18:31:52.515Z,58.16
2022-10-19T18:34:25.111Z,58.46
2022-10-19T18:36:52.395Z,58.70
2022-10-19T18:39:19.291Z,58.79
2022-10-19T18:41:45.964Z,59.16
2022-10-19T18:44:13.914Z,58.60
2022-10-19T18:46:41.010Z,58.73
2022-10-19T18:49:08.676Z,58.90
2022-10-19T18:51:35.600Z,58.24
2022-10-19T18:54:02.419Z,61.01
2022-10-19T18:56:33.493Z,59.86
2022-10-19T18:59:00.376Z,59.96
2022-10-19T19:01:28.305Z,61.87
2022-10-19T19:03:58.714Z,64.05
2022-10-19T19:06:30.082Z,62.86
2022-10-19T19:08:59.186Z,61.41
2022-10-19T19:11:34.297Z,61.18
2022-10-19T19:14:06.855Z,60.78
2022-10-19T19:16:36.193Z,58.94
2022-10-19T19:19:03.219Z,59.41
2022-10-19T19:21:31.415Z,58.75
2022-10-19T19:24:00.251Z,59.15
2022-10-19T19:26:29.623Z,59.57
2022-10-19T19:28:57.549Z,60.95
2022-10-19T19:31:24.605Z,60.89
2022-10-19T19:33:51.351Z,60.36
2022-10-19T19:36:19.499Z,59.97
2022-10-19T19:38:46.580Z,60.07
2022-10-19T19:41:15.069Z,63.13
2022-10-19T19:43:42.685Z,63.21
2022-10-19T19:46:13.675Z,60.65
2022-10-19T19:48:42.166Z,61.02
2022-10-19T19:51:11.557Z,61.23
2022-10-19T19:53:38.385Z,59.73
2022-10-19T19:56:09.029Z,59.45
2022-10-19T19:58:36.000Z,60.54
2022-10-19T20:01:12.289Z,61.24
2022-10-19T20:03:40.451Z,60.54
2022-10-19T20:06:07.631Z,61.20
2022-10-19T20:08:36.286Z,61.09
2022-10-19T20:11:08.599Z,62.33
2022-10-19T20:13:35.468Z,60.99
2022-10-19T20:16:09.179Z,61.64
2022-10-19T20:18:36.041Z,64.04
2022-10-19T20:21:03.578Z,66.01
2022-10-19T20:23:30.121Z,64.46
2022-10-19T20:25:56.993Z,65.25
2022-10-19T20:28:25.175Z,64.74
2022-10-19T20:31:02.592Z,63.42
2022-10-19T20:33:31.521Z,63.16
2022-10-19T20:36:06.862Z,62.21
2022-10-19T20:38:34.982Z,61.22
2022-10-19T20:41:09.788Z,60.25
2022-10-19T20:43:37.524Z,60.30
2022-10-19T20:46:04.959Z,60.49
2022-10-19T20:48:31.786Z,60.50
2022-10-19T20:51:32.604Z,59.55
2022-10-19T20:54:01.818Z,59.81
2022-10-19T20:56:30.800Z,60.05
2022-10-19T20:59:00.541Z,60.17
2022-10-19T21:01:29.246Z,60.26
2022-10-19T21:03:58.244Z,61.16
2022-10-19T21:06:26.699Z,62.10
2022-10-19T21:08:53.601Z,63.87
2022-10-19T21:11:23.359Z,64.46
2022-10-19T21:13:54.020Z,65.17
2022-10-19T21:16:22.137Z,65.55
2022-10-19T21:18:49.684Z,66.14
2022-10-19T21:21:22.535Z,64.57
2022-10-19T21:23:53.207Z,65.38
2022-10-19T21:26:20.099Z,64.37
2022-10-19T21:28:48.412Z,64.71
2022-10-19T21:31:16.788Z,64.71
2022-10-19T21:33:44.551Z,65.03
2022-10-19T21:36:12.611Z,64.88
2022-10-19T21:38:39.392Z,65.43
2022-10-19T21:41:08.691Z,65.45
2022-10-19T21:43:35.589Z,65.59
2022-10-19T21:46:06.881Z,65.07
2022-10-19T21:48:34.382Z,66.30
2022-10-19T21:51:12.708Z,66.36
2022-10-19T21:53:39.332Z,66.43
2022-10-19T21:56:06.185Z,65.38
2022-10-19T21:58:32.843Z,63.18
2022-10-19T22:01:06.526Z,61.91
2022-10-19T22:03:33.814Z,62.12
2022-10-19T22:06:00.772Z,63.17
2022-10-19T22:08:27.637Z,63.49
2022-10-19T22:10:54.317Z,62.92
2022-10-19T22:13:20.970Z,63.06
2022-10-19T22:15:47.523Z,63.23
2022-10-19T22:18:14.212Z,62.58
2022-10-19T22:20:41.036Z,62.70
2022-10-19T22:23:08.328Z,64.54
2022-10-19T22:25:35.765Z,64.22
2022-10-19T22:28:02.692Z,63.50
2022-10-19T22:30:29.403Z,63.25
2022-10-19T22:32:56.076Z,65.62
2022-10-19T22:35:22.677Z,65.36
2022-10-19T22:37:49.350Z,65.66
2022-10-19T22:40:15.958Z,66.02
2022-10-19T22:42:42.579Z,65.52
2022-10-19T22:45:09.323Z,66.29
2022-10-19T22:47:36.038Z,66.37
2022-10-19T22:50:02.696Z,66.14
2022-10-19T22:52:29.321Z,66.12
2022-10-19T22:54:55.983Z,65.18
2022-10-19T22:57:22.591Z,66.36
2022-10-19T22:59:49.134Z,64.54
2022-10-19T23:02:15.944Z,64.81
2022-10-19T23:04:42.502Z,65.29
2022-10-19T23:07:09.118Z,66.05
2022-10-19T23:09:35.722Z,65.02
2022-10-19T23:12:02.359Z,65.03
2022-10-19T23:14:28.991Z,64.28
2022-10-19T23:16:55.694Z,64.49
2022-10-19T23:19:22.258Z,64.38
2022-10-19T23:21:48.863Z,64.34
2022-10-19T23:24:15.461Z,65.22
2022-10-19T23:26:42.039Z,65.38
2022-10-19T23:29:08.655Z,65.50
2022-10-19T23:31:35.299Z,65.25
2022-10-19T23:34:01.860Z,65.01
2022-10-19T23:36:28.961Z,65.56
2022-10-19T23:38:56.729Z,65.26
2022-10-19T23:41:24.126Z,64.90
2022-10-19T23:43:50.729Z,66.11
2022-10-19T23:46:17.568Z,66.91
2022-10-19T23:48:44.292Z,65.06
2022-10-19T23:51:12.211Z,65.64
2022-10-19T23:53:41.464Z,65.29
2022-10-19T23:56:14.824Z,65.20
2022-10-19T23:58:41.845Z,65.52
